createdAt,value
2023-05-19T00:00:14.772Z,2.67
2023-05-19T00:02:44.052Z,2.60
2023-05-19T00:05:15.178Z,2.42
2023-05-19T00:07:45.422Z,2.40
2023-05-19T00:10:14.117Z,2.80
2023-05-19T00:12:42.877Z,2.83
2023-05-19T00:15:11.898Z,3.28
2023-05-19T00:17:42.473Z,3.05
2023-05-19T00:20:12.592Z,2.70
2023-05-19T00:22:44.096Z,2.80
2023-05-19T00:25:11.899Z,2.97
2023-05-19T00:27:39.697Z,2.80
2023-05-19T00:30:09.863Z,3.00
2023-05-19T00:32:37.779Z,2.63
2023-05-19T00:35:06.229Z,2.73
2023-05-19T00:37:34.075Z,2.88
2023-05-19T00:40:06.149Z,3.20
2023-05-19T00:42:34.016Z,2.70
2023-05-19T00:45:01.763Z,2.58
2023-05-19T00:47:29.648Z,2.70
2023-05-19T00:49:57.585Z,2.80
2023-05-19T00:52:25.418Z,2.63
2023-05-19T00:54:54.105Z,2.80
2023-05-19T00:57:23.594Z,2.70
2023-05-19T00:59:51.618Z,2.80
2023-05-19T01:02:19.457Z,2.80
2023-05-19T01:04:47.350Z,2.65
2023-05-19T01:07:16.443Z,2.83
2023-05-19T01:09:44.588Z,3.00
2023-05-19T01:12:12.628Z,2.70
2023-05-19T01:14:42.561Z,3.03
2023-05-19T01:17:20.717Z,2.58
2023-05-19T01:20:02.083Z,2.80
2023-05-19T01:22:44.261Z,2.83
2023-05-19T01:25:42.464Z,2.60
2023-05-19T01:28:33.067Z,2.83
2023-05-19T01:31:04.642Z,3.00
2023-05-19T01:33:33.685Z,3.10
2023-05-19T01:36:04.449Z,3.03
2023-05-19T01:38:35.267Z,2.50
2023-05-19T01:41:04.869Z,3.25
2023-05-19T01:43:32.890Z,2.60
2023-05-19T01:46:03.365Z,2.70
2023-05-19T01:48:31.851Z,3.00
2023-05-19T01:50:59.888Z,3.20
2023-05-19T01:53:27.920Z,2.67
2023-05-19T01:55:57.327Z,2.60
2023-05-19T01:58:37.475Z,2.67
2023-05-19T02:01:17.546Z,2.80
2023-05-19T02:03:59.057Z,2.60
2023-05-19T02:06:37.885Z,3.05
2023-05-19T02:09:12.346Z,2.70
2023-05-19T02:11:46.037Z,2.70
2023-05-19T02:14:18.844Z,2.60
2023-05-19T02:16:49.878Z,2.70
2023-05-19T02:19:23.213Z,2.83
2023-05-19T02:21:51.277Z,2.53
2023-05-19T02:24:20.117Z,2.80
2023-05-19T02:26:48.522Z,2.80
2023-05-19T02:29:16.404Z,2.53
2023-05-19T02:31:44.629Z,3.28
2023-05-19T02:34:13.891Z,3.10
2023-05-19T02:36:43.381Z,2.45
2023-05-19T02:39:11.954Z,3.20
2023-05-19T02:41:40.432Z,3.00
2023-05-19T02:44:08.854Z,2.45
2023-05-19T02:46:37.705Z,2.40
2023-05-19T02:49:05.630Z,2.70
2023-05-19T02:51:34.789Z,2.47
2023-05-19T02:54:02.843Z,2.70
2023-05-19T02:56:30.655Z,2.50
2023-05-19T02:58:58.813Z,3.08
2023-05-19T03:01:26.796Z,2.85
2023-05-19T03:03:54.712Z,2.83
2023-05-19T03:06:24.408Z,2.87
2023-05-19T03:08:53.534Z,2.80
2023-05-19T03:11:23.214Z,2.60
2023-05-19T03:13:51.163Z,2.35
2023-05-19T03:16:19.069Z,2.88
2023-05-19T03:18:47.163Z,2.73
2023-05-19T03:21:14.949Z,2.45
2023-05-19T03:23:42.776Z,2.90
2023-05-19T03:26:12.329Z,2.53
2023-05-19T03:28:40.315Z,2.50
2023-05-19T03:31:08.349Z,2.70
2023-05-19T03:33:39.566Z,2.95
2023-05-19T03:36:08.554Z,2.55
2023-05-19T03:38:39.534Z,2.33
2023-05-19T03:41:07.499Z,2.60
2023-05-19T03:43:37.086Z,2.67
2023-05-19T03:46:07.679Z,2.60
2023-05-19T03:48:58.781Z,2.70
2023-05-19T03:51:46.095Z,2.70
2023-05-19T03:54:27.782Z,3.33
2023-05-19T03:56:55.810Z,2.83
2023-05-19T03:59:26.210Z,2.88
2023-05-19T04:01:54.165Z,2.30
2023-05-19T04:04:22.856Z,2.78
2023-05-19T04:06:50.857Z,2.78
2023-05-19T04:09:19.417Z,2.50
2023-05-19T04:11:47.246Z,2.83
2023-05-19T04:14:15.003Z,2.95
2023-05-19T04:16:45.762Z,2.78
2023-05-19T04:19:13.609Z,2.55
2023-05-19T04:21:41.435Z,3.20
2023-05-19T04:24:09.553Z,3.50
2023-05-19T04:26:38.304Z,2.63
2023-05-19T04:29:06.155Z,2.83
2023-05-19T04:31:34.525Z,3.20
2023-05-19T04:34:04.848Z,3.10
2023-05-19T04:36:34.029Z,2.60
2023-05-19T04:39:06.298Z,2.88
2023-05-19T04:41:34.952Z,3.10
2023-05-19T04:44:04.982Z,3.10
2023-05-19T04:46:33.956Z,3.30
2023-05-19T04:49:02.238Z,2.95
2023-05-19T04:51:32.190Z,3.20
2023-05-19T04:54:02.504Z,2.97
2023-05-19T04:56:30.596Z,2.80
2023-05-19T04:58:58.919Z,3.07
2023-05-19T05:01:28.489Z,3.58
2023-05-19T05:03:59.037Z,3.15
2023-05-19T05:06:28.608Z,3.53
2023-05-19T05:08:58.152Z,3.80
2023-05-19T05:11:27.077Z,3.43
2023-05-19T05:13:58.415Z,3.45
2023-05-19T05:16:28.754Z,3.63
2023-05-19T05:19:01.322Z,3.70
2023-05-19T05:21:29.999Z,3.55
2023-05-19T05:23:59.765Z,4.83
2023-05-19T05:26:34.203Z,3.60
2023-05-19T05:29:02.377Z,4.00
2023-05-19T05:31:30.671Z,3.88
2023-05-19T05:33:59.541Z,3.90
2023-05-19T05:36:31.644Z,4.07
2023-05-19T05:39:03.949Z,3.88
2023-05-19T05:41:35.416Z,4.20
2023-05-19T05:44:09.282Z,3.92
2023-05-19T05:46:39.657Z,3.88
2023-05-19T05:49:08.409Z,3.70
2023-05-19T05:51:37.247Z,3.90
2023-05-19T05:54:08.269Z,4.60
2023-05-19T05:56:41.335Z,4.13
2023-05-19T05:59:10.279Z,4.13
2023-05-19T06:01:38.503Z,3.83
2023-05-19T06:04:09.437Z,4.32
2023-05-19T06:06:37.979Z,3.88
2023-05-19T06:09:08.237Z,4.47
2023-05-19T06:11:36.089Z,4.72
2023-05-19T06:14:05.304Z,4.40
2023-05-19T06:17:08.331Z,3.70
2023-05-19T06:19:36.140Z,3.75
2023-05-19T06:22:04.198Z,4.63
2023-05-19T06:24:33.785Z,4.00
2023-05-19T06:27:01.557Z,3.60
2023-05-19T06:29:29.477Z,3.78
2023-05-19T06:32:01.594Z,3.92
2023-05-19T06:34:31.198Z,4.03
2023-05-19T06:37:02.341Z,3.65
2023-05-19T06:39:31.012Z,3.80
2023-05-19T06:42:00.257Z,4.07
2023-05-19T06:44:48.360Z,4.35
2023-05-19T06:47:17.506Z,3.80
2023-05-19T06:49:50.640Z,3.60
2023-05-19T06:52:18.579Z,4.30
2023-05-19T06:54:46.483Z,3.72
2023-05-19T06:57:15.950Z,3.63
2023-05-19T06:59:46.543Z,3.58
2023-05-19T07:02:15.333Z,3.80
2023-05-19T07:04:43.517Z,3.40
2023-05-19T07:07:13.788Z,3.45
2023-05-19T07:09:41.560Z,3.30
2023-05-19T07:12:09.549Z,3.50
2023-05-19T07:14:38.897Z,3.92
2023-05-19T07:17:07.205Z,3.90
2023-05-19T07:19:37.311Z,3.92
2023-05-19T07:22:05.497Z,3.80
2023-05-19T07:24:33.295Z,3.25
2023-05-19T07:27:01.452Z,3.25
2023-05-19T07:29:29.296Z,3.40
2023-05-19T07:31:58.449Z,3.80
2023-05-19T07:34:26.397Z,3.22
2023-05-19T07:36:54.777Z,3.17
2023-05-19T07:39:23.517Z,3.13
2023-05-19T07:41:55.560Z,3.00
2023-05-19T07:44:23.420Z,3.10
2023-05-19T07:46:51.265Z,3.58
2023-05-19T07:49:20.430Z,2.97
2023-05-19T07:51:48.161Z,3.42
2023-05-19T07:54:16.491Z,3.23
2023-05-19T07:56:44.333Z,3.28
2023-05-19T07:59:12.168Z,2.75
2023-05-19T08:01:39.962Z,2.88
2023-05-19T08:04:10.287Z,2.70
2023-05-19T08:06:42.694Z,2.87
2023-05-19T08:09:10.440Z,2.90
2023-05-19T08:11:38.445Z,2.80
2023-05-19T08:14:06.281Z,2.60
2023-05-19T08:16:34.069Z,2.50
2023-05-19T08:19:04.280Z,2.90
2023-05-19T08:21:34.590Z,2.97
2023-05-19T08:24:04.378Z,2.47
2023-05-19T08:26:32.171Z,2.70
2023-05-19T08:28:59.930Z,2.78
2023-05-19T08:31:27.860Z,3.07
2023-05-19T08:33:55.982Z,2.42
2023-05-19T08:36:24.774Z,2.95
2023-05-19T08:38:52.595Z,3.03
2023-05-19T08:41:23.166Z,2.55
2023-05-19T08:43:51.119Z,2.60
2023-05-19T08:46:19.351Z,2.75
2023-05-19T08:48:49.100Z,3.05
2023-05-19T08:51:22.331Z,2.85
2023-05-19T08:53:52.956Z,2.40
2023-05-19T08:56:24.218Z,2.97
2023-05-19T08:58:52.798Z,2.50
2023-05-19T09:01:21.059Z,2.90
2023-05-19T09:03:50.067Z,2.55
2023-05-19T09:06:18.726Z,2.90
2023-05-19T09:08:47.054Z,2.63
2023-05-19T09:11:15.139Z,2.50
2023-05-19T09:13:44.251Z,2.28
2023-05-19T09:16:12.272Z,2.70
2023-05-19T09:18:40.949Z,1.90
2023-05-19T09:21:11.181Z,1.87
2023-05-19T09:23:39.036Z,2.10
2023-05-19T09:26:07.735Z,1.83
2023-05-19T09:28:37.859Z,2.72
2023-05-19T09:31:08.542Z,2.17
2023-05-19T09:33:37.772Z,2.50
2023-05-19T09:36:08.309Z,2.60
2023-05-19T09:38:37.358Z,2.85
2023-05-19T09:41:06.578Z,2.72
2023-05-19T09:43:35.415Z,2.88
2023-05-19T09:46:05.789Z,2.30
2023-05-19T09:48:35.540Z,2.03
2023-05-19T09:51:05.226Z,2.17
2023-05-19T09:53:33.793Z,2.50
2023-05-19T09:56:03.582Z,2.15
2023-05-19T09:58:34.716Z,2.23
2023-05-19T10:01:03.035Z,1.90
2023-05-19T10:03:32.617Z,1.95
2023-05-19T10:06:02.253Z,1.90
2023-05-19T10:08:31.884Z,1.63
2023-05-19T10:11:00.977Z,2.33
2023-05-19T10:13:31.105Z,1.90
2023-05-19T10:16:00.472Z,1.60
2023-05-19T10:18:29.548Z,2.03
2023-05-19T10:20:58.580Z,2.17
2023-05-19T10:23:27.823Z,1.70
2023-05-19T10:25:57.656Z,2.10
2023-05-19T10:28:32.626Z,2.10
2023-05-19T10:31:03.843Z,1.80
2023-05-19T10:33:43.110Z,2.05
2023-05-19T10:36:32.067Z,2.40
2023-05-19T10:39:07.075Z,1.80
2023-05-19T10:41:43.985Z,1.90
2023-05-19T10:44:21.413Z,1.92
2023-05-19T10:46:49.465Z,2.15
2023-05-19T10:49:21.766Z,2.13
2023-05-19T10:51:49.882Z,2.08
2023-05-19T10:54:20.974Z,2.10
2023-05-19T10:56:48.950Z,3.15
2023-05-19T10:59:33.224Z,1.75
2023-05-19T11:02:05.087Z,2.20
2023-05-19T11:04:51.107Z,2.30
2023-05-19T11:07:21.013Z,2.40
2023-05-19T11:09:52.843Z,2.40
2023-05-19T11:12:25.377Z,2.05
2023-05-19T11:14:54.274Z,2.23
2023-05-19T11:17:23.681Z,2.35
2023-05-19T11:19:56.069Z,2.63
2023-05-19T11:22:25.847Z,2.40
2023-05-19T11:24:56.096Z,2.38
2023-05-19T11:27:28.850Z,2.13
2023-05-19T11:29:59.182Z,1.92
2023-05-19T11:32:28.472Z,2.47
2023-05-19T11:34:57.604Z,2.25
2023-05-19T11:37:25.455Z,2.40
2023-05-19T11:39:55.029Z,2.23
2023-05-19T11:42:22.896Z,2.17
2023-05-19T11:44:50.834Z,2.08
2023-05-19T11:47:18.637Z,2.60
2023-05-19T11:49:48.782Z,2.85
2023-05-19T11:52:16.787Z,2.60
2023-05-19T11:54:44.610Z,2.38
2023-05-19T11:57:14.021Z,2.38
2023-05-19T11:59:45.521Z,2.42
2023-05-19T12:02:19.109Z,2.28
2023-05-19T12:04:47.411Z,2.23
2023-05-19T12:07:18.481Z,2.22
2023-05-19T12:09:47.034Z,2.47
2023-05-19T12:12:17.429Z,1.98
2023-05-19T12:14:45.448Z,2.30
2023-05-19T12:17:14.308Z,2.63
2023-05-19T12:19:44.481Z,2.53
2023-05-19T12:22:12.818Z,2.10
2023-05-19T12:24:41.794Z,2.47
2023-05-19T12:27:13.651Z,2.60
2023-05-19T12:29:44.064Z,2.50
2023-05-19T12:32:12.763Z,2.75
2023-05-19T12:34:41.527Z,2.40
2023-05-19T12:37:09.344Z,2.10
2023-05-19T12:39:37.306Z,2.70
2023-05-19T12:42:08.603Z,2.20
2023-05-19T12:44:38.430Z,2.50
2023-05-19T12:47:08.040Z,2.75
2023-05-19T12:49:37.017Z,2.83
2023-05-19T12:52:11.864Z,2.78
2023-05-19T12:54:40.924Z,2.60
2023-05-19T12:57:08.981Z,2.72
2023-05-19T12:59:38.436Z,2.60
2023-05-19T13:02:08.067Z,2.78
2023-05-19T13:04:36.096Z,3.10
2023-05-19T13:07:04.006Z,2.70
2023-05-19T13:09:35.011Z,3.10
2023-05-19T13:12:04.700Z,2.63
2023-05-19T13:14:32.551Z,2.90
2023-05-19T13:17:00.422Z,2.70
2023-05-19T13:19:29.684Z,2.63
2023-05-19T13:21:57.532Z,2.70
2023-05-19T13:24:25.381Z,3.28
2023-05-19T13:29:21.070Z,3.20
2023-05-19T13:31:48.981Z,3.10
2023-05-19T13:34:17.119Z,2.67
2023-05-19T13:36:48.220Z,3.05
2023-05-19T13:39:16.277Z,3.67
2023-05-19T13:41:43.983Z,2.90
2023-05-19T13:44:11.828Z,3.17
2023-05-19T13:46:45.336Z,3.00
2023-05-19T13:49:14.363Z,3.70
2023-05-19T13:51:43.762Z,3.15
2023-05-19T13:54:12.832Z,2.85
2023-05-19T13:56:40.890Z,2.83
2023-05-19T13:59:08.741Z,2.78
2023-05-19T14:01:37.085Z,2.83
2023-05-19T14:04:05.549Z,3.42
2023-05-19T14:06:33.405Z,3.22
2023-05-19T14:09:01.262Z,3.10
2023-05-19T14:11:30.383Z,2.80
2023-05-19T14:13:58.277Z,3.10
2023-05-19T14:16:28.696Z,3.20
2023-05-19T14:18:56.624Z,2.80
2023-05-19T14:21:24.550Z,3.03
2023-05-19T14:23:52.303Z,2.92
2023-05-19T14:26:21.864Z,3.67
2023-05-19T14:28:51.484Z,3.25
2023-05-19T14:31:19.268Z,3.42
2023-05-19T14:33:47.082Z,3.20
2023-05-19T14:36:15.026Z,3.47
2023-05-19T14:38:42.796Z,3.30
2023-05-19T14:41:10.626Z,3.65
2023-05-19T14:43:38.469Z,3.55
2023-05-19T14:46:07.716Z,2.70
2023-05-19T14:48:35.549Z,3.50
2023-05-19T14:51:03.358Z,3.10
2023-05-19T14:53:31.216Z,3.30
2023-05-19T14:55:58.950Z,3.33
2023-05-19T14:58:29.231Z,3.63
2023-05-19T15:00:58.945Z,3.28
2023-05-19T15:03:28.206Z,2.97
2023-05-19T15:05:56.132Z,2.90
2023-05-19T15:08:24.168Z,2.92
2023-05-19T15:10:52.316Z,3.10
2023-05-19T15:13:21.469Z,3.05
2023-05-19T15:15:49.489Z,3.00
2023-05-19T15:18:18.731Z,3.13
2023-05-19T15:20:48.817Z,3.22
2023-05-19T15:23:16.620Z,2.90
2023-05-19T15:25:45.566Z,2.38
2023-05-19T15:28:13.522Z,2.47
2023-05-19T15:30:42.875Z,2.67
2023-05-19T15:33:11.584Z,2.30
2023-05-19T15:35:39.536Z,2.60
2023-05-19T15:38:09.090Z,2.50
2023-05-19T15:40:36.933Z,2.65
2023-05-19T15:43:04.709Z,2.15
2023-05-19T15:45:32.481Z,2.83
2023-05-19T15:48:00.274Z,2.27
2023-05-19T15:50:28.257Z,2.35
2023-05-19T15:52:56.051Z,2.28
2023-05-19T15:55:25.150Z,3.00
2023-05-19T15:57:52.899Z,2.53
2023-05-19T16:00:20.788Z,2.80
2023-05-19T16:02:48.695Z,3.00
2023-05-19T16:05:16.754Z,2.65
2023-05-19T16:07:45.035Z,3.15
2023-05-19T16:10:12.793Z,2.50
2023-05-19T16:12:41.841Z,2.80
2023-05-19T16:15:10.564Z,3.55
2023-05-19T16:17:38.463Z,3.40
2023-05-19T16:20:07.490Z,3.05
2023-05-19T16:22:35.420Z,2.97
2023-05-19T16:25:03.158Z,3.83
2023-05-19T16:27:30.973Z,3.40
2023-05-19T16:30:01.099Z,3.05
2023-05-19T16:32:28.967Z,3.22
2023-05-19T16:34:56.715Z,3.30
2023-05-19T16:37:24.556Z,3.93
2023-05-19T16:39:52.303Z,3.38
2023-05-19T16:42:20.133Z,3.35
2023-05-19T16:44:47.995Z,3.72
2023-05-19T16:47:17.207Z,3.75
2023-05-19T16:49:45.322Z,3.87
2023-05-19T16:52:13.211Z,3.88
2023-05-19T16:54:40.990Z,3.60
2023-05-19T16:57:09.819Z,3.65
2023-05-19T16:59:37.960Z,3.60
2023-05-19T17:02:06.197Z,3.60
2023-05-19T17:04:35.689Z,3.65
2023-05-19T17:07:03.486Z,3.60
2023-05-19T17:09:31.299Z,3.40
2023-05-19T17:11:59.690Z,3.33
2023-05-19T17:14:27.398Z,3.67
2023-05-19T17:16:55.166Z,3.30
2023-05-19T17:19:23.088Z,3.25
2023-05-19T17:21:52.383Z,3.53
2023-05-19T17:24:20.204Z,3.85
2023-05-19T17:26:48.206Z,3.33
2023-05-19T17:29:15.999Z,3.67
2023-05-19T17:31:43.841Z,3.38
2023-05-19T17:34:11.614Z,3.65
2023-05-19T17:36:39.448Z,3.50
2023-05-19T17:39:08.615Z,3.77
2023-05-19T17:41:36.385Z,4.20
2023-05-19T17:44:06.680Z,3.10
2023-05-19T17:46:36.074Z,3.10
2023-05-19T17:49:03.937Z,2.97
2023-05-19T17:51:32.727Z,3.37
2023-05-19T17:54:01.127Z,3.53
2023-05-19T17:56:34.032Z,3.88
2023-05-19T17:59:02.354Z,3.60
2023-05-19T18:01:30.773Z,2.85
2023-05-19T18:03:59.127Z,2.83
2023-05-19T18:06:29.616Z,3.55
2023-05-19T18:08:59.963Z,3.13
2023-05-19T18:11:28.231Z,3.00
2023-05-19T18:13:57.769Z,3.00
2023-05-19T18:16:25.721Z,2.93
2023-05-19T18:18:53.505Z,3.05
2023-05-19T18:21:21.506Z,3.80
2023-05-19T18:23:49.354Z,4.60
2023-05-19T18:26:17.305Z,3.47
2023-05-19T18:28:45.175Z,3.17
2023-05-19T18:31:19.304Z,3.17
2023-05-19T18:33:47.896Z,3.22
2023-05-19T18:36:16.582Z,3.10
2023-05-19T18:38:44.487Z,2.97
2023-05-19T18:41:12.334Z,2.67
2023-05-19T18:43:40.261Z,2.78
2023-05-19T18:46:08.167Z,3.33
2023-05-19T18:48:37.323Z,4.10
2023-05-19T18:51:07.175Z,3.17
2023-05-19T18:53:35.614Z,3.60
2023-05-19T18:56:04.330Z,3.10
2023-05-19T18:58:32.229Z,3.47
2023-05-19T19:01:00.072Z,3.20
2023-05-19T19:03:28.533Z,3.33
2023-05-19T19:05:58.936Z,3.90
2023-05-19T19:08:26.815Z,3.60
2023-05-19T19:10:59.160Z,3.85
2023-05-19T19:13:26.962Z,4.40
2023-05-19T19:15:54.729Z,3.90
2023-05-19T19:18:22.649Z,3.50
2023-05-19T19:20:50.525Z,3.03
2023-05-19T19:23:19.658Z,2.70
2023-05-19T19:25:48.036Z,2.95
2023-05-19T19:28:15.987Z,2.67
2023-05-19T19:30:43.745Z,3.30
2023-05-19T19:33:11.591Z,3.80
2023-05-19T19:35:39.381Z,3.45
2023-05-19T19:38:09.416Z,3.40
2023-05-19T19:40:38.470Z,3.67
2023-05-19T19:43:06.280Z,3.70
2023-05-19T19:45:34.794Z,3.50
2023-05-19T19:48:02.812Z,3.33
2023-05-19T19:50:31.397Z,3.20
2023-05-19T19:52:59.292Z,3.38
2023-05-19T19:55:27.237Z,3.97
2023-05-19T19:57:56.372Z,3.25
2023-05-19T20:00:24.516Z,3.28
2023-05-19T20:03:03.846Z,3.38
2023-05-19T20:05:32.751Z,2.90
2023-05-19T20:08:00.698Z,4.00
2023-05-19T20:10:28.468Z,3.08
2023-05-19T20:12:58.848Z,3.15
2023-05-19T20:15:26.713Z,3.47
2023-05-19T20:17:54.546Z,3.20
2023-05-19T20:20:22.330Z,3.60
2023-05-19T20:22:50.177Z,3.83
2023-05-19T20:25:17.954Z,3.08
2023-05-19T20:27:46.296Z,3.05
2023-05-19T20:30:15.833Z,2.50
2023-05-19T20:32:43.667Z,2.80
2023-05-19T20:35:11.904Z,2.22
2023-05-19T20:37:39.799Z,2.25
2023-05-19T20:40:08.644Z,2.03
2023-05-19T20:42:36.516Z,2.30
2023-05-19T20:45:04.455Z,3.10
2023-05-19T20:47:33.699Z,2.75
2023-05-19T20:50:01.742Z,2.60
2023-05-19T20:52:29.532Z,7.93
2023-05-19T20:54:57.300Z,4.80
2023-05-19T20:57:27.630Z,2.60
2023-05-19T20:59:56.719Z,3.50
2023-05-19T21:02:24.481Z,3.08
2023-05-19T21:04:53.931Z,3.25
2023-05-19T21:07:22.473Z,2.72
2023-05-19T21:09:51.354Z,3.60
2023-05-19T21:12:23.664Z,2.75
2023-05-19T21:14:51.834Z,3.25
2023-05-19T21:17:20.987Z,3.00
2023-05-19T21:19:50.605Z,2.72
2023-05-19T21:22:20.429Z,2.97
2023-05-19T21:24:48.496Z,3.10
2023-05-19T21:27:16.334Z,2.75
2023-05-19T21:29:44.170Z,4.03
2023-05-19T21:32:12.005Z,5.20
2023-05-19T21:34:40.033Z,3.90
2023-05-19T21:37:07.759Z,3.20
2023-05-19T21:39:37.191Z,3.40
2023-05-19T21:42:06.385Z,3.55
2023-05-19T21:44:34.255Z,3.00
2023-05-19T21:47:02.017Z,3.00
2023-05-19T21:49:29.891Z,3.17
2023-05-19T21:51:57.894Z,3.33
2023-05-19T21:54:25.768Z,2.97
2023-05-19T21:56:55.001Z,3.20
2023-05-19T21:59:24.744Z,2.93
2023-05-19T22:01:53.125Z,3.30
2023-05-19T22:04:21.218Z,2.92
2023-05-19T22:06:49.140Z,3.00
2023-05-19T22:09:17.012Z,2.72
2023-05-19T22:11:44.875Z,3.47
2023-05-19T22:14:14.260Z,7.13
2023-05-19T22:16:42.117Z,8.55
2023-05-19T22:19:10.462Z,4.28
2023-05-19T22:21:38.289Z,3.35
2023-05-19T22:24:06.365Z,3.90
2023-05-19T22:26:35.759Z,4.65
2023-05-19T22:29:03.597Z,3.90
2023-05-19T22:31:32.682Z,3.22
2023-05-19T22:34:00.619Z,3.70
2023-05-19T22:36:28.578Z,3.87
2023-05-19T22:38:56.391Z,3.55
2023-05-19T22:41:24.756Z,3.30
2023-05-19T22:43:52.761Z,3.33
2023-05-19T22:46:20.519Z,3.30
2023-05-19T22:48:49.828Z,3.30
2023-05-19T22:51:17.684Z,3.15
2023-05-19T22:53:46.587Z,3.28
2023-05-19T22:56:14.478Z,2.92
2023-05-19T22:58:42.362Z,3.15
2023-05-19T23:01:10.431Z,3.10
2023-05-19T23:03:38.626Z,3.10
2023-05-19T23:06:07.919Z,3.13
2023-05-19T23:08:35.847Z,2.97
2023-05-19T23:11:03.579Z,3.40
2023-05-19T23:13:31.859Z,3.53
2023-05-19T23:15:59.678Z,3.60
2023-05-19T23:18:27.525Z,3.63
2023-05-19T23:20:55.240Z,3.10
2023-05-19T23:23:24.438Z,4.65
2023-05-19T23:25:52.342Z,3.13
2023-05-19T23:28:20.131Z,3.28
2023-05-19T23:30:47.935Z,3.35
2023-05-19T23:33:15.818Z,4.00
2023-05-19T23:35:43.575Z,3.70
2023-05-19T23:38:11.345Z,3.87
2023-05-19T23:40:40.365Z,3.47
2023-05-19T23:43:08.345Z,3.67
2023-05-19T23:45:36.149Z,4.25
2023-05-19T23:48:03.929Z,3.65
2023-05-19T23:50:32.072Z,4.10
2023-05-19T23:53:00.721Z,3.67
2023-05-19T23:55:28.757Z,3.83
2023-05-19T23:57:57.834Z,4.00
